sensor_id;sensor_type;location;lat;lon;timestamp;pressure;altitude;pressure_sealevel;temperature;humidity
30897;BME280;64229;52.246;21.054;2023-01-29T03:39:51;101322.03;;;-0.96;75.64
30897;BME280;64229;52.246;21.054;2023-01-29T03:46:01;101302.69;;;-1.03;75.33
30897;BME280;64229;52.246;21.054;2023-01-29T03:48:53;101321.69;;;-1.01;75.95
30897;BME280;64229;52.246;21.054;2023-01-29T03:51:44;101318.09;;;-1.00;75.77
30897;BME280;64229;52.246;21.054;2023-01-29T03:54:20;101317.09;;;-0.91;76.29
30897;BME280;64229;52.246;21.054;2023-01-29T03:57:29;101315.47;;;-1.00;76.01
30897;BME280;64229;52.246;21.054;2023-01-29T04:00:03;101306.47;;;-1.05;75.84
30897;BME280;64229;52.246;21.054;2023-01-29T04:02:55;101296.13;;;-1.07;76.66
30897;BME280;64229;52.246;21.054;2023-01-29T04:05:30;101295.66;;;-1.10;76.43
30897;BME280;64229;52.246;21.054;2023-01-29T04:08:04;101309.75;;;-1.03;76.26
30897;BME280;64229;52.246;21.054;2023-01-29T04:10:32;101305.31;;;-1.03;76.44
30897;BME280;64229;52.246;21.054;2023-01-29T04:13:05;101302.03;;;-1.13;77.09
30897;BME280;64229;52.246;21.054;2023-01-29T04:15:42;101303.03;;;-1.14;77.39
30897;BME280;64229;52.246;21.054;2023-01-29T04:18:10;101302.69;;;-1.19;77.12
30897;BME280;64229;52.246;21.054;2023-01-29T04:20:36;101300.72;;;-0.93;77.09
30897;BME280;64229;52.246;21.054;2023-01-29T04:23:05;101301.22;;;-0.89;76.38
30897;BME280;64229;52.246;21.054;2023-01-29T04:25:45;101282.38;;;-1.01;76.31
30897;BME280;64229;52.246;21.054;2023-01-29T04:28:20;101284.34;;;-1.03;76.02
30897;BME280;64229;52.246;21.054;2023-01-29T04:33:52;101289.25;;;-1.00;76.86
30897;BME280;64229;52.246;21.054;2023-01-29T04:49:55;101269.28;;;-0.93;76.14
30897;BME280;64229;52.246;21.054;2023-01-29T05:00:34;101256.81;;;-1.07;77.31
30897;BME280;64229;52.246;21.054;2023-01-29T05:03:04;101264.22;;;-1.02;77.42
30897;BME280;64229;52.246;21.054;2023-01-29T05:05:30;101260.78;;;-1.11;78.09
30897;BME280;64229;52.246;21.054;2023-01-29T05:07:56;101255.69;;;-1.21;78.31
30897;BME280;64229;52.246;21.054;2023-01-29T05:10:24;101268.63;;;-1.11;77.98
30897;BME280;64229;52.246;21.054;2023-01-29T05:12:58;101263.06;;;-1.00;77.82
30897;BME280;64229;52.246;21.054;2023-01-29T05:15:29;101258.81;;;-1.09;77.69
30897;BME280;64229;52.246;21.054;2023-01-29T05:17:57;101262.88;;;-0.98;77.08
30897;BME280;64229;52.246;21.054;2023-01-29T05:20:30;101265.84;;;-0.93;77.72
30897;BME280;64229;52.246;21.054;2023-01-29T05:22:57;101261.25;;;-0.91;77.29
30897;BME280;64229;52.246;21.054;2023-01-29T05:25:25;101255.88;;;-1.06;77.11
30897;BME280;64229;52.246;21.054;2023-01-29T05:27:52;101259.63;;;-0.84;77.00
30897;BME280;64229;52.246;21.054;2023-01-29T05:30:35;101257.63;;;-0.82;76.53
30897;BME280;64229;52.246;21.054;2023-01-29T05:33:01;101248.94;;;-0.74;76.44
30897;BME280;64229;52.246;21.054;2023-01-29T05:35:27;101248.78;;;-0.81;76.19
30897;BME280;64229;52.246;21.054;2023-01-29T05:37:56;101235.50;;;-0.71;76.47
30897;BME280;64229;52.246;21.054;2023-01-29T05:40:23;101219.78;;;-0.88;76.11
30897;BME280;64229;52.246;21.054;2023-01-29T05:42:48;101237.03;;;-1.09;77.53
30897;BME280;64229;52.246;21.054;2023-01-29T05:45:16;101237.53;;;-1.14;77.96
30897;BME280;64229;52.246;21.054;2023-01-29T05:47:42;101234.75;;;-1.29;78.55
30897;BME280;64229;52.246;21.054;2023-01-29T05:50:08;101236.53;;;-1.13;78.17
30897;BME280;64229;52.246;21.054;2023-01-29T05:52:34;101230.16;;;-1.02;77.16
30897;BME280;64229;52.246;21.054;2023-01-29T05:54:59;101234.75;;;-1.04;77.81
30897;BME280;64229;52.246;21.054;2023-01-29T05:57:25;101234.91;;;-1.06;77.89
30897;BME280;64229;52.246;21.054;2023-01-29T05:59:50;101226.19;;;-0.98;77.81
30897;BME280;64229;52.246;21.054;2023-01-29T06:02:15;101226.72;;;-1.03;77.86
30897;BME280;64229;52.246;21.054;2023-01-29T06:04:41;101228.19;;;-1.00;77.98
30897;BME280;64229;52.246;21.054;2023-01-29T06:07:06;101239.94;;;-0.96;78.25
30897;BME280;64229;52.246;21.054;2023-01-29T06:09:32;101242.91;;;-0.91;77.97
30897;BME280;64229;52.246;21.054;2023-01-29T06:11:57;101244.72;;;-0.92;77.72
30897;BME280;64229;52.246;21.054;2023-01-29T06:14:23;101245.69;;;-0.84;77.17
30897;BME280;64229;52.246;21.054;2023-01-29T06:16:48;101246.69;;;-1.02;77.85
30897;BME280;64229;52.246;21.054;2023-01-29T06:19:14;101229.16;;;-1.09;78.26
30897;BME280;64229;52.246;21.054;2023-01-29T06:21:39;101228.81;;;-1.06;78.01
30897;BME280;64229;52.246;21.054;2023-01-29T06:24:05;101230.16;;;-1.19;78.80
30897;BME280;64229;52.246;21.054;2023-01-29T06:26:30;101231.47;;;-1.14;77.90
30897;BME280;64229;52.246;21.054;2023-01-29T06:28:56;101233.28;;;-1.15;78.41
30897;BME280;64229;52.246;21.054;2023-01-29T06:31:21;101237.84;;;-1.17;78.64
30897;BME280;64229;52.246;21.054;2023-01-29T06:33:47;101238.66;;;-0.92;78.33
30897;BME280;64229;52.246;21.054;2023-01-29T06:36:12;101231.09;;;-0.87;77.84
30897;BME280;64229;52.246;21.054;2023-01-29T06:38:37;101234.88;;;-0.81;77.24
30897;BME280;64229;52.246;21.054;2023-01-29T06:41:15;101240.22;;;-0.75;77.55
30897;BME280;64229;52.246;21.054;2023-01-29T06:43:43;101246.31;;;-0.74;76.86
30897;BME280;64229;52.246;21.054;2023-01-29T06:46:08;101234.88;;;-0.90;77.78
30897;BME280;64229;52.246;21.054;2023-01-29T06:48:34;101236.66;;;-0.74;76.99
30897;BME280;64229;52.246;21.054;2023-01-29T06:51:05;101232.88;;;-0.71;76.89
30897;BME280;64229;52.246;21.054;2023-01-29T06:53:32;101231.09;;;-0.79;77.50
30897;BME280;64229;52.246;21.054;2023-01-29T06:55:58;101230.78;;;-0.92;78.22
30897;BME280;64229;52.246;21.054;2023-01-29T06:58:24;101244.69;;;-0.83;77.88
30897;BME280;64229;52.246;21.054;2023-01-29T07:00:50;101240.47;;;-1.01;77.14
30897;BME280;64229;52.246;21.054;2023-01-29T07:03:15;101237.97;;;-0.86;77.70
30897;BME280;64229;52.246;21.054;2023-01-29T07:05:41;101232.94;;;-0.96;77.51
30897;BME280;64229;52.246;21.054;2023-01-29T07:08:07;101228.97;;;-0.92;77.09
30897;BME280;64229;52.246;21.054;2023-01-29T07:10:34;101223.38;;;-0.80;77.24
30897;BME280;64229;52.246;21.054;2023-01-29T07:12:59;101227.00;;;-0.73;77.09
30897;BME280;64229;52.246;21.054;2023-01-29T07:15:25;101215.00;;;-0.68;76.53
30897;BME280;64229;52.246;21.054;2023-01-29T07:18:00;101201.91;;;-0.76;77.17
30897;BME280;64229;52.246;21.054;2023-01-29T07:20:28;101210.91;;;-0.62;76.66
30897;BME280;64229;52.246;21.054;2023-01-29T07:22:55;101219.13;;;-0.73;76.07
30897;BME280;64229;52.246;21.054;2023-01-29T07:25:21;101219.91;;;-0.65;76.60
30897;BME280;64229;52.246;21.054;2023-01-29T07:27:46;101212.34;;;-0.60;76.43
30897;BME280;64229;52.246;21.054;2023-01-29T07:30:13;101233.44;;;-0.45;75.45
30897;BME280;64229;52.246;21.054;2023-01-29T07:32:38;101230.03;;;-0.53;75.28
30897;BME280;64229;52.246;21.054;2023-01-29T07:35:04;101230.19;;;-0.55;75.47
30897;BME280;64229;52.246;21.054;2023-01-29T07:37:30;101232.69;;;-0.62;75.89
30897;BME280;64229;52.246;21.054;2023-01-29T07:39:55;101232.81;;;-0.55;76.12
30897;BME280;64229;52.246;21.054;2023-01-29T07:42:21;101229.72;;;-0.59;75.88
30897;BME280;64229;52.246;21.054;2023-01-29T07:44:46;101242.34;;;-0.62;76.12
30897;BME280;64229;52.246;21.054;2023-01-29T07:47:12;101246.13;;;-0.65;76.28
30897;BME280;64229;52.246;21.054;2023-01-29T07:49:37;101242.53;;;-0.72;76.21
30897;BME280;64229;52.246;21.054;2023-01-29T07:52:02;101241.69;;;-0.64;75.81
30897;BME280;64229;52.246;21.054;2023-01-29T07:54:29;101232.22;;;-0.73;76.37
30897;BME280;64229;52.246;21.054;2023-01-29T07:56:54;101222.88;;;-0.76;76.82
30897;BME280;64229;52.246;21.054;2023-01-29T07:59:20;101221.38;;;-0.62;76.76
30897;BME280;64229;52.246;21.054;2023-01-29T08:01:45;101203.34;;;-0.65;76.54
30897;BME280;64229;52.246;21.054;2023-01-29T08:04:11;101207.59;;;-0.56;75.62
30897;BME280;64229;52.246;21.054;2023-01-29T08:06:36;101209.41;;;-0.65;76.01
30897;BME280;64229;52.246;21.054;2023-01-29T08:09:02;101222.16;;;-0.53;76.08
30897;BME280;64229;52.246;21.054;2023-01-29T08:11:27;101226.09;;;-0.57;75.83
30897;BME280;64229;52.246;21.054;2023-01-29T08:13:53;101215.13;;;-0.53;75.53
30897;BME280;64229;52.246;21.054;2023-01-29T08:16:19;101199.28;;;-0.76;75.75
30897;BME280;64229;52.246;21.054;2023-01-29T08:18:44;101207.78;;;-0.66;76.38
30897;BME280;64229;52.246;21.054;2023-01-29T08:21:12;101192.88;;;-0.65;76.08
30897;BME280;64229;52.246;21.054;2023-01-29T08:23:38;101201.53;;;-0.65;75.76
30897;BME280;64229;52.246;21.054;2023-01-29T08:26:04;101202.22;;;-0.71;77.67
30897;BME280;64229;52.246;21.054;2023-01-29T08:28:30;101201.88;;;-0.60;76.52
30897;BME280;64229;52.246;21.054;2023-01-29T08:30:56;101205.41;;;-0.44;75.64
30897;BME280;64229;52.246;21.054;2023-01-29T08:33:22;101207.91;;;-0.51;75.98
30897;BME280;64229;52.246;21.054;2023-01-29T08:35:48;101204.75;;;-0.46;75.67
30897;BME280;64229;52.246;21.054;2023-01-29T08:38:14;101211.75;;;-0.31;75.28
30897;BME280;64229;52.246;21.054;2023-01-29T08:40:40;101212.44;;;-0.37;75.09
30897;BME280;64229;52.246;21.054;2023-01-29T08:43:06;101213.78;;;-0.41;74.85
30897;BME280;64229;52.246;21.054;2023-01-29T08:45:34;101213.88;;;-0.34;74.78
30897;BME280;64229;52.246;21.054;2023-01-29T08:48:00;101206.03;;;-0.34;74.66
30897;BME280;64229;52.246;21.054;2023-01-29T08:50:25;101208.38;;;-0.47;75.86
30897;BME280;64229;52.246;21.054;2023-01-29T08:52:59;101201.97;;;-0.45;76.12
30897;BME280;64229;52.246;21.054;2023-01-29T08:55:25;101201.75;;;-0.35;75.20
30897;BME280;64229;52.246;21.054;2023-01-29T08:57:51;101196.78;;;-0.53;75.61
30897;BME280;64229;52.246;21.054;2023-01-29T09:00:17;101202.25;;;-0.79;77.24
30897;BME280;64229;52.246;21.054;2023-01-29T09:02:42;101188.75;;;-0.60;76.32
30897;BME280;64229;52.246;21.054;2023-01-29T09:05:08;101172.91;;;-0.35;76.14
30897;BME280;64229;52.246;21.054;2023-01-29T09:07:34;101180.00;;;-0.44;76.36
30897;BME280;64229;52.246;21.054;2023-01-29T09:10:00;101176.19;;;-0.72;77.76
30897;BME280;64229;52.246;21.054;2023-01-29T09:12:26;101169.63;;;-0.68;77.48
30897;BME280;64229;52.246;21.054;2023-01-29T09:14:51;101167.13;;;-0.62;77.40
30897;BME280;64229;52.246;21.054;2023-01-29T09:17:17;101161.34;;;-0.49;77.69
30897;BME280;64229;52.246;21.054;2023-01-29T09:19:42;101163.34;;;-0.59;78.16
30897;BME280;64229;52.246;21.054;2023-01-29T09:22:08;101171.88;;;-0.57;78.85
30897;BME280;64229;52.246;21.054;2023-01-29T09:24:34;101158.53;;;-0.47;79.20
30897;BME280;64229;52.246;21.054;2023-01-29T09:27:00;101162.06;;;-0.32;79.07
30897;BME280;64229;52.246;21.054;2023-01-29T09:29:25;101160.13;;;-0.07;77.69
30897;BME280;64229;52.246;21.054;2023-01-29T09:31:51;101164.53;;;0.23;77.01
30897;BME280;64229;52.246;21.054;2023-01-29T09:34:17;101171.81;;;0.36;77.21
30897;BME280;64229;52.246;21.054;2023-01-29T09:36:42;101168.66;;;0.41;77.31
30897;BME280;64229;52.246;21.054;2023-01-29T09:39:08;101164.38;;;0.40;76.56
30897;BME280;64229;52.246;21.054;2023-01-29T09:44:03;101149.63;;;0.39;77.53
30897;BME280;64229;52.246;21.054;2023-01-29T09:46:43;101156.50;;;0.40;76.82
30897;BME280;64229;52.246;21.054;2023-01-29T09:49:20;101149.03;;;0.51;76.22
30897;BME280;64229;52.246;21.054;2023-01-29T09:51:53;101151.31;;;0.54;76.20
30897;BME280;64229;52.246;21.054;2023-01-29T09:54:22;101139.41;;;0.21;77.33
30897;BME280;64229;52.246;21.054;2023-01-29T09:56:52;101137.94;;;0.41;78.79
30897;BME280;64229;52.246;21.054;2023-01-29T09:59:20;101128.25;;;0.42;77.39
30897;BME280;64229;52.246;21.054;2023-01-29T10:01:58;101135.56;;;0.54;77.20
30897;BME280;64229;52.246;21.054;2023-01-29T10:07:19;101127.50;;;0.71;77.26
30897;BME280;64229;52.246;21.054;2023-01-29T10:12:56;101121.00;;;0.96;76.77
30897;BME280;64229;52.246;21.054;2023-01-29T10:26:41;101114.28;;;0.64;79.51
30897;BME280;64229;52.246;21.054;2023-01-29T10:29:09;101109.91;;;0.56;80.38
30897;BME280;64229;52.246;21.054;2023-01-29T10:31:38;101113.16;;;0.44;80.86
30897;BME280;64229;52.246;21.054;2023-01-29T10:34:18;101110.22;;;0.39;81.37
30897;BME280;64229;52.246;21.054;2023-01-29T10:36:48;101111.69;;;0.41;82.53
30897;BME280;64229;52.246;21.054;2023-01-29T10:39:16;101108.00;;;0.50;83.18
30897;BME280;64229;52.246;21.054;2023-01-29T11:00:37;101094.34;;;0.17;83.24
30897;BME280;64229;52.246;21.054;2023-01-29T11:05:45;101090.84;;;0.25;83.08
30897;BME280;64229;52.246;21.054;2023-01-29T11:08:15;101078.88;;;0.22;84.06
30897;BME280;64229;52.246;21.054;2023-01-29T11:10:53;101073.91;;;0.27;84.53
30897;BME280;64229;52.246;21.054;2023-01-29T11:13:27;101072.44;;;0.25;83.86
30897;BME280;64229;52.246;21.054;2023-01-29T11:15:53;101069.22;;;0.52;83.40
30897;BME280;64229;52.246;21.054;2023-01-29T11:18:19;101066.25;;;0.55;83.14
30897;BME280;64229;52.246;21.054;2023-01-29T11:20:45;101034.25;;;0.52;83.08
30897;BME280;64229;52.246;21.054;2023-01-29T11:23:31;101053.56;;;0.44;82.96
30897;BME280;64229;52.246;21.054;2023-01-29T11:25:58;101054.91;;;0.40;83.13
30897;BME280;64229;52.246;21.054;2023-01-29T11:31:00;101044.13;;;0.50;82.89
30897;BME280;64229;52.246;21.054;2023-01-29T11:33:27;101022.56;;;0.25;84.19
30897;BME280;64229;52.246;21.054;2023-01-29T11:35:53;101017.84;;;0.20;83.81
30897;BME280;64229;52.246;21.054;2023-01-29T11:38:25;101011.50;;;0.15;84.11
30897;BME280;64229;52.246;21.054;2023-01-29T11:40:51;101010.44;;;0.24;84.28
30897;BME280;64229;52.246;21.054;2023-01-29T11:45:52;101000.13;;;0.37;84.54
30897;BME280;64229;52.246;21.054;2023-01-29T11:48:21;100992.63;;;0.34;83.92
30897;BME280;64229;52.246;21.054;2023-01-29T11:50:56;100987.06;;;0.29;83.86
30897;BME280;64229;52.246;21.054;2023-01-29T11:55:59;100987.69;;;0.31;84.45
30897;BME280;64229;52.246;21.054;2023-01-29T11:58:31;100993.25;;;0.36;84.64
30897;BME280;64229;52.246;21.054;2023-01-29T12:00:59;100985.34;;;0.51;84.52
30897;BME280;64229;52.246;21.054;2023-01-29T12:03:39;100987.53;;;0.47;83.51
30897;BME280;64229;52.246;21.054;2023-01-29T12:06:17;100979.00;;;0.31;85.01
30897;BME280;64229;52.246;21.054;2023-01-29T12:08:54;100983.25;;;0.32;84.78
30897;BME280;64229;52.246;21.054;2023-01-29T12:11:31;100970.69;;;0.27;84.47
30897;BME280;64229;52.246;21.054;2023-01-29T12:14:02;100969.94;;;0.18;84.96
30897;BME280;64229;52.246;21.054;2023-01-29T12:16:38;100960.53;;;0.09;85.99
30897;BME280;64229;52.246;21.054;2023-01-29T12:19:27;100948.13;;;0.03;86.70
30897;BME280;64229;52.246;21.054;2023-01-29T12:22:00;100949.09;;;-0.13;86.80
30897;BME280;64229;52.246;21.054;2023-01-29T12:24:30;100942.41;;;-0.15;87.52
30897;BME280;64229;52.246;21.054;2023-01-29T12:27:15;100939.97;;;-0.17;87.73
30897;BME280;64229;52.246;21.054;2023-01-29T12:32:32;100945.25;;;0.13;87.11
30897;BME280;64229;52.246;21.054;2023-01-29T12:35:05;100946.59;;;0.09;86.35
30897;BME280;64229;52.246;21.054;2023-01-29T12:40:36;100932.31;;;0.11;86.94
30897;BME280;64229;52.246;21.054;2023-01-29T12:43:15;100927.41;;;0.08;87.12
30897;BME280;64229;52.246;21.054;2023-01-29T12:45:42;100918.38;;;0.11;87.07
30897;BME280;64229;52.246;21.054;2023-01-29T12:48:12;100922.25;;;0.00;86.90
30897;BME280;64229;52.246;21.054;2023-01-29T12:50:38;100921.16;;;-0.06;87.81
30897;BME280;64229;52.246;21.054;2023-01-29T12:53:28;100915.53;;;-0.03;88.06
30897;BME280;64229;52.246;21.054;2023-01-29T12:55:59;100908.38;;;-0.23;88.70
30897;BME280;64229;52.246;21.054;2023-01-29T12:58:44;100909.53;;;-0.26;89.52
30897;BME280;64229;52.246;21.054;2023-01-29T13:01:15;100908.56;;;-0.25;89.73
30897;BME280;64229;52.246;21.054;2023-01-29T13:06:52;100911.59;;;0.02;88.42
30897;BME280;64229;52.246;21.054;2023-01-29T13:09:26;100922.16;;;0.08;88.85
30897;BME280;64229;52.246;21.054;2023-01-29T13:12:02;100912.03;;;0.05;88.39
30897;BME280;64229;52.246;21.054;2023-01-29T13:14:48;100931.56;;;0.17;88.30
30897;BME280;64229;52.246;21.054;2023-01-29T13:22:45;100925.50;;;0.32;88.21
30897;BME280;64229;52.246;21.054;2023-01-29T13:25:17;100923.06;;;0.30;88.38
30897;BME280;64229;52.246;21.054;2023-01-29T13:27:43;100918.72;;;0.22;89.12
30897;BME280;64229;52.246;21.054;2023-01-29T13:30:32;100918.09;;;0.35;89.99
30897;BME280;64229;52.246;21.054;2023-01-29T13:33:00;100918.91;;;0.36;90.01
30897;BME280;64229;52.246;21.054;2023-01-29T13:35:43;100915.94;;;0.24;89.84
30897;BME280;64229;52.246;21.054;2023-01-29T13:38:26;100915.56;;;0.27;89.73
30897;BME280;64229;52.246;21.054;2023-01-29T13:41:04;100913.56;;;0.29;90.51
30897;BME280;64229;52.246;21.054;2023-01-29T13:43:38;100903.50;;;0.18;90.44
30897;BME280;64229;52.246;21.054;2023-01-29T13:46:14;100891.91;;;0.27;90.71
30897;BME280;64229;52.246;21.054;2023-01-29T13:48:43;100875.91;;;0.07;91.38
30897;BME280;64229;52.246;21.054;2023-01-29T13:51:13;100884.78;;;-0.09;92.14
30897;BME280;64229;52.246;21.054;2023-01-29T13:53:53;100881.69;;;-0.12;92.50
30897;BME280;64229;52.246;21.054;2023-01-29T13:58:59;100888.03;;;-0.07;92.91
30897;BME280;64229;52.246;21.054;2023-01-29T14:06:54;100888.66;;;-0.05;93.58
30897;BME280;64229;52.246;21.054;2023-01-29T14:12:33;100905.03;;;-0.03;93.22
30897;BME280;64229;52.246;21.054;2023-01-29T14:20:40;100927.59;;;0.07;93.96
30897;BME280;64229;52.246;21.054;2023-01-29T14:25:59;100927.03;;;-0.04;93.66
30897;BME280;64229;52.246;21.054;2023-01-29T14:28:28;100925.84;;;-0.01;94.36
30897;BME280;64229;52.246;21.054;2023-01-29T14:30:55;100922.72;;;0.04;94.37
30897;BME280;64229;52.246;21.054;2023-01-29T14:35:54;100907.47;;;-0.01;94.99
30897;BME280;64229;52.246;21.054;2023-01-29T14:38:22;100910.91;;;-0.15;94.76
30897;BME280;64229;52.246;21.054;2023-01-29T14:40:48;100895.34;;;-0.17;95.74
30897;BME280;64229;52.246;21.054;2023-01-29T14:43:18;100902.59;;;-0.04;95.29
30897;BME280;64229;52.246;21.054;2023-01-29T14:45:49;100896.47;;;0.04;95.20
30897;BME280;64229;52.246;21.054;2023-01-29T14:51:09;100872.47;;;0.07;94.42
30897;BME280;64229;52.246;21.054;2023-01-29T14:56:32;100878.44;;;-0.14;95.21
30897;BME280;64229;52.246;21.054;2023-01-29T14:59:23;100883.06;;;-0.16;95.52
30897;BME280;64229;52.246;21.054;2023-01-29T15:01:55;100893.91;;;-0.19;95.59
30897;BME280;64229;52.246;21.054;2023-01-29T15:04:36;100908.75;;;-0.12;95.88
30897;BME280;64229;52.246;21.054;2023-01-29T15:07:16;100894.91;;;-0.06;96.41
30897;BME280;64229;52.246;21.054;2023-01-29T15:09:51;100880.97;;;-0.06;95.45
30897;BME280;64229;52.246;21.054;2023-01-29T15:15:06;100862.44;;;-0.19;95.36
30897;BME280;64229;52.246;21.054;2023-01-29T15:22:49;100869.94;;;-0.31;97.83
30897;BME280;64229;52.246;21.054;2023-01-29T15:25:15;100869.94;;;-0.31;97.69
30897;BME280;64229;52.246;21.054;2023-01-29T15:27:43;100862.16;;;-0.24;97.11
30897;BME280;64229;52.246;21.054;2023-01-29T15:30:15;100856.28;;;-0.26;96.68
30897;BME280;64229;52.246;21.054;2023-01-29T15:32:42;100860.34;;;-0.24;96.95
30897;BME280;64229;52.246;21.054;2023-01-29T15:37:57;100859.06;;;-0.28;97.62
30897;BME280;64229;52.246;21.054;2023-01-29T15:40:23;100842.06;;;-0.17;97.91
30897;BME280;64229;52.246;21.054;2023-01-29T15:42:48;100829.22;;;-0.27;98.14
30897;BME280;64229;52.246;21.054;2023-01-29T15:45:27;100840.53;;;-0.41;98.89
30897;BME280;64229;52.246;21.054;2023-01-29T15:47:59;100849.22;;;-0.41;99.17
30897;BME280;64229;52.246;21.054;2023-01-29T15:50:27;100852.53;;;-0.47;98.86
30897;BME280;64229;52.246;21.054;2023-01-29T15:52:53;100848.66;;;-0.51;99.16
30897;BME280;64229;52.246;21.054;2023-01-29T15:55:21;100829.31;;;-0.50;99.22
30897;BME280;64229;52.246;21.054;2023-01-29T15:57:47;100831.94;;;-0.50;99.52
30897;BME280;64229;52.246;21.054;2023-01-29T16:00:22;100835.28;;;-0.41;99.48
30897;BME280;64229;52.246;21.054;2023-01-29T16:02:50;100824.69;;;-0.33;100.00
30897;BME280;64229;52.246;21.054;2023-01-29T16:05:18;100838.72;;;-0.41;100.00
30897;BME280;64229;52.246;21.054;2023-01-29T16:07:45;100834.09;;;-0.39;100.00
30897;BME280;64229;52.246;21.054;2023-01-29T16:10:25;100824.75;;;-0.56;100.00
30897;BME280;64229;52.246;21.054;2023-01-29T16:12:52;100845.91;;;-0.72;100.00
30897;BME280;64229;52.246;21.054;2023-01-29T16:15:31;100838.50;;;-0.54;100.00
30897;BME280;64229;52.246;21.054;2023-01-29T16:17:58;100844.41;;;-0.52;100.00
30897;BME280;64229;52.246;21.054;2023-01-29T16:20:36;100840.41;;;-0.48;100.00
30897;BME280;64229;52.246;21.054;2023-01-29T16:23:03;100833.00;;;-0.44;100.00
30897;BME280;64229;52.246;21.054;2023-01-29T16:25:37;100846.34;;;-0.31;100.00
30897;BME280;64229;52.246;21.054;2023-01-29T16:28:04;100841.34;;;-0.41;100.00
30897;BME280;64229;52.246;21.054;2023-01-29T16:30:31;100848.03;;;-0.38;100.00
30897;BME280;64229;52.246;21.054;2023-01-29T16:33:05;100835.00;;;-0.46;100.00
30897;BME280;64229;52.246;21.054;2023-01-29T16:35:32;100841.16;;;-0.39;100.00
30897;BME280;64229;52.246;21.054;2023-01-29T16:38:02;100852.84;;;-0.27;100.00
30897;BME280;64229;52.246;21.054;2023-01-29T16:40:31;100839.72;;;-0.27;100.00
30897;BME280;64229;52.246;21.054;2023-01-29T16:48:33;100861.53;;;-0.64;100.00
30897;BME280;64229;52.246;21.054;2023-01-29T16:51:12;100857.22;;;-0.57;100.00
30897;BME280;64229;52.246;21.054;2023-01-29T16:53:38;100853.53;;;-0.48;100.00
30897;BME280;64229;52.246;21.054;2023-01-29T16:56:06;100850.22;;;-0.42;100.00
30897;BME280;64229;52.246;21.054;2023-01-29T16:58:33;100848.56;;;-0.43;100.00
30897;BME280;64229;52.246;21.054;2023-01-29T17:01:05;100841.59;;;-0.36;100.00
30897;BME280;64229;52.246;21.054;2023-01-29T17:03:32;100840.59;;;-0.49;100.00
30897;BME280;64229;52.246;21.054;2023-01-29T17:06:07;100838.34;;;-0.52;100.00
30897;BME280;64229;52.246;21.054;2023-01-29T17:08:34;100832.75;;;-0.49;100.00
30897;BME280;64229;52.246;21.054;2023-01-29T17:11:00;100824.88;;;-0.49;100.00
30897;BME280;64229;52.246;21.054;2023-01-29T17:15:51;100820.59;;;-0.65;100.00
30897;BME280;64229;52.246;21.054;2023-01-29T17:18:22;100818.69;;;-0.56;100.00
30897;BME280;64229;52.246;21.054;2023-01-29T17:20:48;100802.59;;;-0.53;100.00
30897;BME280;64229;52.246;21.054;2023-01-29T17:23:14;100809.88;;;-0.41;100.00
30897;BME280;64229;52.246;21.054;2023-01-29T17:25:40;100805.88;;;-0.37;100.00
30897;BME280;64229;52.246;21.054;2023-01-29T17:28:06;100790.03;;;-0.43;100.00
30897;BME280;64229;52.246;21.054;2023-01-29T17:30:34;100806.63;;;-0.28;100.00
30897;BME280;64229;52.246;21.054;2023-01-29T17:33:12;100801.81;;;-0.24;100.00
30897;BME280;64229;52.246;21.054;2023-01-29T17:35:39;100790.59;;;-0.33;100.00
30897;BME280;64229;52.246;21.054;2023-01-29T17:38:11;100779.66;;;-0.51;100.00
30897;BME280;64229;52.246;21.054;2023-01-29T17:40:59;100781.03;;;-0.41;100.00
30897;BME280;64229;52.246;21.054;2023-01-29T17:43:27;100784.16;;;-0.45;100.00
30897;BME280;64229;52.246;21.054;2023-01-29T17:45:52;100783.19;;;-0.44;100.00
30897;BME280;64229;52.246;21.054;2023-01-29T17:48:21;100759.59;;;-0.59;100.00
30897;BME280;64229;52.246;21.054;2023-01-29T17:50:49;100761.03;;;-0.56;100.00
30897;BME280;64229;52.246;21.054;2023-01-29T17:53:17;100754.03;;;-0.64;100.00
30897;BME280;64229;52.246;21.054;2023-01-29T17:55:42;100744.47;;;-0.57;100.00
30897;BME280;64229;52.246;21.054;2023-01-29T17:58:19;100750.91;;;-0.45;100.00
30897;BME280;64229;52.246;21.054;2023-01-29T18:00:46;100744.66;;;-0.44;100.00
30897;BME280;64229;52.246;21.054;2023-01-29T18:03:15;100736.97;;;-0.45;100.00
30897;BME280;64229;52.246;21.054;2023-01-29T18:05:42;100725.66;;;-0.46;100.00
30897;BME280;64229;52.246;21.054;2023-01-29T18:08:17;100732.81;;;-0.40;100.00
30897;BME280;64229;52.246;21.054;2023-01-29T18:10:44;100715.72;;;-0.36;100.00
30897;BME280;64229;52.246;21.054;2023-01-29T18:13:10;100708.28;;;-0.32;100.00
30897;BME280;64229;52.246;21.054;2023-01-29T18:15:36;100706.69;;;-0.48;100.00
30897;BME280;64229;52.246;21.054;2023-01-29T18:18:03;100702.69;;;-0.44;100.00
30897;BME280;64229;52.246;21.054;2023-01-29T18:20:30;100684.28;;;-0.50;100.00
30897;BME280;64229;52.246;21.054;2023-01-29T18:22:56;100692.38;;;-0.45;100.00
30897;BME280;64229;52.246;21.054;2023-01-29T18:25:21;100690.75;;;-0.32;100.00
30897;BME280;64229;52.246;21.054;2023-01-29T18:27:47;100699.22;;;-0.15;100.00
30897;BME280;64229;52.246;21.054;2023-01-29T18:30:13;100712.97;;;-0.13;100.00
30897;BME280;64229;52.246;21.054;2023-01-29T18:32:38;100704.03;;;-0.18;100.00
30897;BME280;64229;52.246;21.054;2023-01-29T18:35:05;100685.84;;;-0.20;100.00
30897;BME280;64229;52.246;21.054;2023-01-29T18:37:32;100698.78;;;-0.18;100.00
30897;BME280;64229;52.246;21.054;2023-01-29T18:39:58;100701.41;;;-0.18;100.00
30897;BME280;64229;52.246;21.054;2023-01-29T18:42:23;100704.03;;;-0.18;100.00
30897;BME280;64229;52.246;21.054;2023-01-29T18:44:49;100688.44;;;-0.05;100.00
30897;BME280;64229;52.246;21.054;2023-01-29T18:47:15;100701.22;;;-0.17;100.00
30897;BME280;64229;52.246;21.054;2023-01-29T18:49:40;100691.78;;;-0.11;100.00